Time;durP1;ratioP1;P1;durP2;ratioP2;P2;SDS_P1;SDS_P2;PMS_P1;PMS_P2;Temp;Humidity;BMP_temperature;BMP_pressure;BME280_temperature;BME280_humidity;BME280_pressure;Samples;Min_cycle;Max_cycle;Signal;HPM_P1;HPM_P2
2022/03/22 00:00:29;;;;;;;47.92;35.58;;;;;;;8.63;69.54;102949.06;5050069;28;20417;-65
2022/03/22 00:02:55;;;;;;;44.65;34.28;;;;;;;8.63;70.08;102951.69;5050198;28;20037;-66
2022/03/22 00:05:20;;;;;;;44.83;33.30;;;;;;;8.61;69.83;102957.97;5049474;28;20607;-65
2022/03/22 00:07:46;;;;;;;45.10;33.63;;;;;;;8.55;70.26;102953.75;5041171;28;20017;-65
2022/03/22 00:10:11;;;;;;;42.97;33.65;;;;;;;8.49;70.50;102952.19;5043562;28;20029;-65
2022/03/22 00:12:37;;;;;;;44.92;34.60;;;;;;;8.46;70.47;102957.59;5049989;28;20021;-66
2022/03/22 00:15:03;;;;;;;45.90;36.22;;;;;;;8.43;71.12;102951.53;5050464;28;20029;-66
2022/03/22 00:17:29;;;;;;;47.75;35.92;;;;;;;8.40;71.37;102955.09;5054172;28;20407;-65
2022/03/22 00:19:55;;;;;;;45.75;34.50;;;;;;;8.39;71.23;102961.28;5047968;28;20032;-65
2022/03/22 00:22:20;;;;;;;43.42;34.38;;;;;;;8.32;71.66;102957.13;5053884;28;20482;-65
2022/03/22 00:24:46;;;;;;;46.20;33.67;;;;;;;8.31;71.05;102952.75;5046134;28;20093;-65
2022/03/22 00:27:11;;;;;;;50.33;34.20;;;;;;;8.28;70.51;102955.50;5053659;28;20033;-65
2022/03/22 00:29:36;;;;;;;43.88;33.60;;;;;;;8.23;69.97;102954.81;5052195;28;20063;-65
2022/03/22 00:32:03;;;;;;;45.47;35.83;;;;;;;8.22;70.98;102956.56;5047345;28;20032;-65
2022/03/22 00:34:28;;;;;;;46.78;34.97;;;;;;;8.19;70.47;102961.94;5053961;28;20037;-65
2022/03/22 00:36:58;;;;;;;48.95;35.13;;;;;;;8.17;70.88;102963.78;5053810;28;20429;-66
2022/03/22 00:39:24;;;;;;;45.22;34.35;;;;;;;8.14;71.04;102964.78;5046459;28;20101;-65
2022/03/22 00:41:49;;;;;;;43.80;32.63;;;;;;;8.12;70.58;102968.38;5053627;28;20025;-66
2022/03/22 00:44:14;;;;;;;47.53;33.05;;;;;;;8.08;70.59;102961.47;5044253;28;20471;-65
2022/03/22 00:46:39;;;;;;;42.78;32.85;;;;;;;8.06;70.47;102961.50;5053401;28;20026;-65
2022/03/22 00:49:05;;;;;;;42.88;33.55;;;;;;;8.05;70.81;102964.19;5047902;28;20076;-65
2022/03/22 00:51:30;;;;;;;44.40;32.95;;;;;;;8.06;72.25;102965.91;5051296;28;20474;-66
2022/03/22 00:53:59;;;;;;;50.60;34.40;;;;;;;8.06;73.00;102966.81;5047660;28;20037;-66
2022/03/22 00:56:25;;;;;;;;;;;;;;;8.12;69.85;102958.63;5053691;28;20124;-65
2022/03/22 01:00:01;;;;;;;45.13;31.52;;;;;;;8.05;71.45;102961.56;5052807;28;20019;-65
2022/03/22 01:01:35;;;;;;;46.95;33.42;;;;;;;8.04;72.15;102962.47;5053218;28;20110;-65
2022/03/22 01:04:00;;;;;;;45.45;33.67;;;;;;;8.04;72.56;102962.47;5044973;28;20123;-65
2022/03/22 01:06:25;;;;;;;41.53;32.15;;;;;;;8.02;71.59;102964.28;5053153;28;20506;-65
2022/03/22 01:08:51;;;;;;;40.13;32.03;;;;;;;8.04;72.73;102959.81;5053142;28;20074;-66
2022/03/22 01:11:16;;;;;;;43.63;31.20;;;;;;;8.02;72.50;102964.28;5052892;28;20488;-65
2022/03/22 01:13:42;;;;;;;42.85;30.20;;;;;;;8.02;72.70;102964.28;5051406;28;20114;-65
2022/03/22 01:16:07;;;;;;;45.45;31.20;;;;;;;8.04;73.39;102971.25;5051640;28;20514;-66
2022/03/22 01:18:32;;;;;;;38.20;29.17;;;;;;;8.01;72.16;102966.09;5049320;28;20033;-66
2022/03/22 01:20:57;;;;;;;40.08;30.63;;;;;;;8.00;72.60;102961.69;5052853;28;20522;-66
2022/03/22 01:23:23;;;;;;;38.83;30.73;;;;;;;7.95;71.13;102964.47;5049777;28;20621;-67
2022/03/22 01:25:49;;;;;;;40.83;29.63;;;;;;;7.95;71.83;102974.22;5052631;28;20033;-67
2022/03/22 01:28:15;;;;;;;36.67;29.13;;;;;;;7.92;71.74;102969.88;5044123;28;20037;-66
2022/03/22 01:30:42;;;;;;;37.55;27.83;;;;;;;7.93;72.46;102973.41;5051235;28;20026;-67
2022/03/22 01:33:08;;;;;;;35.88;27.67;;;;;;;7.89;71.71;102964.69;5052574;28;20021;-67
2022/03/22 01:35:34;;;;;;;38.20;27.35;;;;;;;7.88;71.30;102970.03;5052600;28;20079;-67
2022/03/22 01:37:59;;;;;;;40.17;27.77;;;;;;;7.88;71.85;102967.38;5041096;28;20048;-67
2022/03/22 01:40:26;;;;;;;36.83;27.08;;;;;;;7.84;71.73;102977.16;5052489;28;20028;-66
2022/03/22 01:42:53;;;;;;;36.38;26.58;;;;;;;7.82;71.51;102976.34;5040011;28;20107;-66
2022/03/22 01:45:18;;;;;;;34.78;26.70;;;;;;;7.83;72.21;102978.09;5052666;28;20475;-67
2022/03/22 01:47:46;;;;;;;31.52;24.48;;;;;;;7.86;72.73;102969.19;5045083;28;20036;-66
2022/03/22 01:50:14;;;;;;;31.67;24.27;;;;;;;7.86;72.26;102961.25;5052914;28;20029;-67
2022/03/22 01:52:40;;;;;;;34.05;24.88;;;;;;;7.86;72.18;102977.13;5052223;28;20013;-66
2022/03/22 01:55:07;;;;;;;33.75;24.00;;;;;;;7.86;72.88;102966.53;5042038;28;20091;-67
2022/03/22 01:57:33;;;;;;;31.98;23.38;;;;;;;7.86;72.15;102966.53;5052263;28;20035;-67
2022/03/22 01:59:59;;;;;;;34.83;23.83;;;;;;;7.92;72.93;102961.94;5052297;28;20064;-67
2022/03/22 02:07:57;;;;;;;28.25;23.55;;;;;;;7.95;72.56;102958.34;5051968;28;20040;-66
2022/03/22 02:10:23;;;;;;;29.75;23.88;;;;;;;7.94;72.28;102962.78;5047952;28;20475;-67
2022/03/22 02:12:48;;;;;;;32.55;22.92;;;;;;;7.93;72.29;102961.03;5043495;28;20035;-65
2022/03/22 02:15:13;;;;;;;32.58;24.23;;;;;;;7.93;72.47;102953.09;5052008;28;20100;-65
2022/03/22 02:17:40;;;;;;;35.80;23.73;;;;;;;7.93;72.23;102950.44;5051798;28;20036;-65
2022/03/22 02:20:06;;;;;;;31.55;22.90;;;;;;;7.94;72.33;102952.19;5049466;28;20030;-66
2022/03/22 02:22:35;;;;;;;31.65;23.35;;;;;;;7.93;71.77;102953.09;5051752;28;20025;-66
2022/03/22 02:25:01;;;;;;;32.58;21.65;;;;;;;7.93;71.83;102944.28;5043526;28;20037;-67
2022/03/22 02:27:29;;;;;;;29.05;22.17;;;;;;;7.92;71.88;102943.41;5051188;28;20479;-66
2022/03/22 02:29:54;;;;;;;29.98;23.13;;;;;;;7.91;71.74;102946.97;5045481;28;20021;-66
2022/03/22 02:32:24;;;;;;;28.88;21.10;;;;;;;7.90;71.73;102949.69;5049469;28;20516;-66
2022/03/22 02:34:50;;;;;;;34.70;23.65;;;;;;;7.90;71.68;102947.03;5043485;28;20024;-67
2022/03/22 02:37:15;;;;;;;26.73;21.50;;;;;;;7.86;71.48;102948.03;5051197;28;20033;-67
2022/03/22 02:39:40;;;;;;;30.92;21.40;;;;;;;7.86;71.66;102950.66;5051169;28;20029;-67
2022/03/22 02:42:06;;;;;;;31.42;21.58;;;;;;;7.87;71.95;102955.91;5045490;28;20032;-66
2022/03/22 02:44:31;;;;;;;29.55;21.73;;;;;;;7.84;71.53;102950.72;5051440;28;20025;-67
2022/03/22 02:46:57;;;;;;;28.45;21.73;;;;;;;7.81;71.31;102958.78;5048711;28;20024;-67
2022/03/22 02:49:22;;;;;;;32.00;21.70;;;;;;;7.80;71.77;102951.75;5051374;28;20025;-66
2022/03/22 02:51:47;;;;;;;28.20;21.45;;;;;;;7.78;71.80;102949.13;5041579;28;20359;-67
2022/03/22 02:54:12;;;;;;;29.25;21.20;;;;;;;7.74;71.22;102955.44;5051191;28;20025;-66
2022/03/22 02:56:38;;;;;;;30.63;22.23;;;;;;;7.74;71.22;102954.56;5051072;28;20041;-67
2022/03/22 02:59:03;;;;;;;30.77;21.27;;;;;;;7.74;71.67;102952.81;5043709;28;20048;-67
2022/03/22 03:01:32;;;;;;;25.67;20.15;;;;;;;7.70;70.90;102958.22;5045435;28;20017;-67
2022/03/22 03:03:57;;;;;;;31.17;21.65;;;;;;;7.69;71.56;102956.47;5051197;28;20032;-67
2022/03/22 03:06:23;;;;;;;30.42;20.75;;;;;;;7.64;70.90;102964.56;5051066;28;20029;-67
2022/03/22 03:08:48;;;;;;;28.30;20.90;;;;;;;7.62;71.42;102960.25;5049302;28;20033;-67
2022/03/22 03:11:13;;;;;;;27.55;20.33;;;;;;;7.57;71.18;102961.22;5051271;28;20310;-67
2022/03/22 03:16:23;;;;;;;28.13;20.40;;;;;;;7.46;70.62;102955.41;5044693;28;20075;-67
2022/03/22 03:18:51;;;;;;;29.00;20.40;;;;;;;7.43;71.54;102955.50;5047652;28;20033;-68
2022/03/22 03:21:16;;;;;;;26.65;20.13;;;;;;;7.41;71.34;102959.94;5044852;28;20577;-67
2022/03/22 03:23:41;;;;;;;28.88;20.83;;;;;;;7.38;71.15;102962.69;5046048;28;20025;-68
2022/03/22 03:26:06;;;;;;;27.95;21.20;;;;;;;7.35;71.32;102962.78;5087376;22;20057;-86
2022/03/22 03:28:32;;;;;;;27.45;19.80;;;;;;;7.32;71.00;102957.59;5040981;28;20095;-87
2022/03/22 03:30:57;;;;;;;31.55;20.05;;;;;;;7.18;70.91;102948.28;5042399;28;20052;-87
2022/03/22 03:33:22;;;;;;;26.48;20.33;;;;;;;7.22;71.45;102965.75;5045564;28;20032;-87
2022/03/22 03:35:48;;;;;;;31.02;19.73;;;;;;;7.16;71.39;102965.97;5056598;28;20026;-87
2022/03/22 03:38:13;;;;;;;25.80;19.95;;;;;;;7.12;71.90;102969.59;5048830;28;20084;-86
2022/03/22 03:43:26;;;;;;;28.92;20.63;;;;;;;7.04;71.76;102971.56;5055466;28;20110;-87
2022/03/22 03:48:44;;;;;;;29.30;20.30;;;;;;;6.98;72.17;102980.53;5051157;28;20144;-86
2022/03/22 03:51:09;;;;;;;29.30;19.70;;;;;;;6.90;71.95;102968.47;5019693;28;20045;-86
2022/03/22 03:53:43;;;;;;;27.60;20.98;;;;;;;6.82;72.19;102969.50;5036063;28;20160;-87
2022/03/22 03:56:08;;;;;;;28.70;20.67;;;;;;;6.87;73.12;102976.47;5025080;28;20495;-88
2022/03/22 03:58:33;;;;;;;30.70;21.60;;;;;;;6.88;73.26;102980.81;5039826;28;20033;-88
2022/03/22 04:00:59;;;;;;;32.40;21.90;;;;;;;6.86;73.29;102975.56;5040177;28;20040;-88
2022/03/22 04:03:24;;;;;;;29.23;21.00;;;;;;;6.90;73.46;102982.53;5038286;28;20026;-87
2022/03/22 04:05:49;;;;;;;27.83;20.30;;;;;;;6.90;73.08;102981.66;5037829;28;20018;-87
2022/03/22 04:08:15;;;;;;;28.67;20.38;;;;;;;6.90;72.60;102985.16;5040187;28;20048;-87
2022/03/22 04:10:41;;;;;;;28.52;20.30;;;;;;;6.89;73.01;102993.13;5027246;28;20038;-87
2022/03/22 04:13:06;;;;;;;32.28;20.58;;;;;;;6.92;73.77;102987.78;5042301;28;20061;-88
2022/03/22 04:15:31;;;;;;;30.70;21.33;;;;;;;6.83;73.49;102975.69;5042131;28;20030;-87
2022/03/22 04:17:59;;;;;;;30.58;20.60;;;;;;;6.87;73.45;102984.38;5042530;28;20030;-87
2022/03/22 04:20:27;;;;;;;28.42;20.63;;;;;;;6.83;72.86;102975.69;5037880;28;20040;-88
2022/03/22 04:22:52;;;;;;;26.60;19.40;;;;;;;6.81;73.43;102974.81;5030582;28;20052;-87
2022/03/22 04:25:18;;;;;;;31.20;20.15;;;;;;;6.85;73.37;102985.28;5040507;28;20577;-87
2022/03/22 04:33:11;;;;;;;25.48;19.98;;;;;;;6.82;72.69;102987.13;5028793;28;20191;-87
2022/03/22 04:35:39;;;;;;;28.73;19.48;;;;;;;6.77;72.80;102989.03;5017264;28;20492;-88
2022/03/22 04:38:04;;;;;;;26.15;19.70;;;;;;;6.77;72.92;102994.31;5019340;28;20045;-88
2022/03/22 04:40:29;;;;;;;27.33;20.25;;;;;;;6.67;73.04;102980.47;5031125;28;20030;-88
2022/03/22 04:42:57;;;;;;;27.77;20.67;;;;;;;6.71;72.73;102997.09;5037846;28;20036;-87
2022/03/22 04:45:23;;;;;;;29.95;21.27;;;;;;;6.62;73.12;102987.66;5035164;28;20132;-87
2022/03/22 04:47:54;;;;;;;28.05;20.95;;;;;;;6.60;72.93;103000.03;5039599;28;20021;-88
2022/03/22 04:50:20;;;;;;;30.98;21.02;;;;;;;6.47;72.65;102995.03;5040224;28;20025;-88
2022/03/22 04:58:13;;;;;;;30.50;21.25;;;;;;;6.43;73.31;103005.75;5038113;28;20575;-88
2022/03/22 05:00:39;;;;;;;30.85;21.30;;;;;;;6.38;72.21;103008.47;5037292;28;20123;-88
2022/03/22 05:03:07;;;;;;;27.85;20.83;;;;;;;6.34;73.17;103017.38;5041563;28;20029;-88
2022/03/22 05:08:16;;;;;;;27.92;21.02;;;;;;;6.33;73.60;103009.47;5052477;28;20049;-87
2022/03/22 05:10:42;;;;;;;27.15;20.80;;;;;;;6.35;74.04;103010.34;5049913;28;20029;-88
2022/03/22 05:13:07;;;;;;;29.85;21.00;;;;;;;6.29;73.96;103006.94;5043207;28;20421;-88
2022/03/22 05:15:32;;;;;;;27.23;20.63;;;;;;;6.28;74.21;103012.25;5042728;28;20029;-87
2022/03/22 05:17:58;;;;;;;28.48;20.75;;;;;;;6.21;73.15;103002.72;5043156;28;20084;-87
2022/03/22 05:20:24;;;;;;;29.98;21.48;;;;;;;6.20;72.91;103014.22;5040653;28;20388;-87
2022/03/22 05:22:50;;;;;;;31.80;20.75;;;;;;;6.17;73.07;103022.19;5041557;28;20037;-87
2022/03/22 05:25:15;;;;;;;26.35;19.85;;;;;;;6.11;73.52;103018.78;5040956;28;20029;-87
2022/03/22 05:27:44;;;;;;;26.23;20.63;;;;;;;6.15;73.85;103027.50;5041288;28;20051;-86
2022/03/22 05:30:09;;;;;;;29.55;20.90;;;;;;;6.10;73.77;103019.69;5027096;28;20021;-86
2022/03/22 05:32:35;;;;;;;29.42;20.65;;;;;;;6.07;73.70;103025.03;5021602;28;20571;-88
2022/03/22 05:35:03;;;;;;;28.60;20.80;;;;;;;6.06;74.23;103019.78;5021520;28;20034;-88
2022/03/22 05:37:28;;;;;;;25.92;20.33;;;;;;;6.04;73.79;103025.09;5021026;28;20030;-88
2022/03/22 05:39:54;;;;;;;29.40;20.52;;;;;;;6.04;73.38;103030.34;5021677;28;20034;-88
2022/03/22 05:42:19;;;;;;;29.35;20.63;;;;;;;6.10;73.63;103038.16;5018669;28;20044;-88
2022/03/22 05:44:45;;;;;;;26.90;19.38;;;;;;;6.04;73.87;103030.34;5039900;28;20502;-88
2022/03/22 05:47:14;;;;;;;29.25;21.73;;;;;;;6.04;75.29;103025.09;5040987;28;20140;-87
2022/03/22 05:49:39;;;;;;;30.17;21.55;;;;;;;6.05;74.60;103039.16;5034982;28;20116;-88
2022/03/22 05:52:06;;;;;;;28.85;21.13;;;;;;;6.04;74.16;103033.00;5020553;28;20028;-88
2022/03/22 05:54:34;;;;;;;29.80;22.27;;;;;;;6.01;74.67;103024.28;5019395;28;20030;-89
2022/03/22 05:57:00;;;;;;;27.90;21.45;;;;;;;6.08;74.32;103042.59;5019040;28;20552;-89
2022/03/22 05:59:27;;;;;;;34.40;21.48;;;;;;;6.06;73.96;103041.78;5018090;28;20083;-89
2022/03/22 06:01:53;;;;;;;31.60;21.90;;;;;;;6.03;75.12;103030.41;5017746;28;20544;-88
2022/03/22 06:04:19;;;;;;;31.98;22.27;;;;;;;6.01;74.91;103034.84;5018747;28;20108;-89
2022/03/22 06:06:47;;;;;;;31.52;21.90;;;;;;;6.07;74.89;103040.00;5019638;28;20026;-89
2022/03/22 06:09:12;;;;;;;29.52;21.45;;;;;;;6.10;74.88;103047.84;5019953;28;20493;-88
2022/03/22 06:11:38;;;;;;;31.13;22.58;;;;;;;6.09;75.18;103046.94;5018310;28;20037;-88
2022/03/22 06:14:04;;;;;;;30.63;21.90;;;;;;;6.12;74.89;103046.03;5019866;28;20026;-87
2022/03/22 06:16:29;;;;;;;30.40;22.55;;;;;;;6.18;75.38;103055.56;5036874;28;20025;-86
2022/03/22 06:18:55;;;;;;;34.13;23.70;;;;;;;6.21;75.14;103058.13;5044835;28;20029;-87
2022/03/22 06:21:20;;;;;;;29.02;22.25;;;;;;;6.26;75.04;103054.50;5044663;28;20022;-87
2022/03/22 06:23:47;;;;;;;31.42;23.98;;;;;;;6.26;75.25;103048.34;5040519;28;20417;-88
2022/03/22 06:26:13;;;;;;;33.40;22.40;;;;;;;6.35;75.28;103057.84;5037392;28;20049;-88
2022/03/22 06:28:38;;;;;;;33.08;23.80;;;;;;;6.36;74.93;103046.38;5051973;28;20051;-89
2022/03/22 06:31:04;;;;;;;36.75;23.00;;;;;;;6.42;74.56;103051.50;5058046;28;20033;-90
2022/03/22 06:33:29;;;;;;;33.35;23.65;;;;;;;6.46;74.45;103048.78;5056579;28;20068;-89
2022/03/22 06:35:55;;;;;;;32.60;23.58;;;;;;;6.46;74.23;103046.13;5042957;28;20029;-89
2022/03/22 06:38:20;;;;;;;33.33;22.95;;;;;;;6.53;74.08;103048.59;5063177;28;20013;-89
2022/03/22 06:40:48;;;;;;;35.40;22.83;;;;;;;6.61;74.28;103054.56;5044314;28;20049;-90
2022/03/22 06:43:14;;;;;;;32.83;23.30;;;;;;;6.67;74.08;103062.34;5044555;28;20438;-89
2022/03/22 06:45:44;;;;;;;32.88;23.45;;;;;;;6.75;73.87;103067.44;5039530;28;20108;-88
2022/03/22 06:48:12;;;;;;;30.17;22.73;;;;;;;6.78;73.93;103060.31;5038376;28;20061;-89
2022/03/22 06:50:38;;;;;;;34.45;23.40;;;;;;;6.80;73.40;103060.28;5040134;28;20129;-88
2022/03/22 06:53:05;;;;;;;33.97;23.50;;;;;;;6.84;73.38;103056.63;5038750;28;20075;-90
2022/03/22 06:55:31;;;;;;;34.42;22.77;;;;;;;6.90;73.46;103053.00;5040301;28;20449;-88
2022/03/22 06:57:57;;;;;;;33.70;24.60;;;;;;;7.00;73.24;103062.41;5038326;28;20068;-88
2022/03/22 07:00:28;;;;;;;34.80;23.95;;;;;;;7.08;73.14;103064.84;5039732;28;20029;-88
2022/03/22 07:02:55;;;;;;;36.88;24.95;;;;;;;7.14;73.05;103069.97;5039913;28;20017;-87
2022/03/22 07:05:20;;;;;;;35.90;23.98;;;;;;;7.18;72.96;103067.22;5039853;28;20022;-89
2022/03/22 07:07:46;;;;;;;29.70;24.70;;;;;;;7.25;72.71;103059.97;5041177;28;20092;-88
2022/03/22 07:10:13;;;;;;;36.53;25.17;;;;;;;7.31;72.67;103066.88;5036922;28;20361;-87
2022/03/22 07:12:51;;;;;;;33.47;24.55;;;;;;;7.34;72.08;103062.34;5034719;28;20025;-87
2022/03/22 07:15:29;;;;;;;34.50;23.83;;;;;;;7.50;71.64;103072.53;5036965;28;20057;-86
2022/03/22 07:17:57;;;;;;;34.17;24.17;;;;;;;7.56;71.36;103062.66;5032587;28;20048;-87
2022/03/22 07:20:23;;;;;;;33.22;24.17;;;;;;;7.65;70.99;103066.81;5033871;28;20487;-86
2022/03/22 07:22:56;;;;;;;36.67;25.05;;;;;;;7.81;70.76;103072.53;5033377;28;20025;-87
2022/03/22 07:25:21;;;;;;;32.78;23.73;;;;;;;7.89;70.58;103073.19;5033833;28;20026;-88
2022/03/22 07:27:47;;;;;;;32.45;24.25;;;;;;;8.00;70.05;103075.50;5035293;28;20053;-86
2022/03/22 07:30:13;;;;;;;35.03;24.98;;;;;;;8.12;70.20;103080.41;5032805;28;20030;-87
2022/03/22 07:32:42;;;;;;;36.58;23.50;;;;;;;8.25;69.52;103075.59;5032542;28;20022;-87
2022/03/22 07:35:09;;;;;;;36.92;24.90;;;;;;;8.34;68.78;103067.38;5032930;28;20453;-87
2022/03/22 07:37:38;;;;;;;35.17;23.83;;;;;;;8.54;68.07;103075.63;5031283;28;20452;-87
2022/03/22 07:40:07;;;;;;;36.17;24.00;;;;;;;8.68;67.84;103078.72;5028490;28;20412;-86
2022/03/22 07:42:33;;;;;;;34.30;24.02;;;;;;;8.80;67.46;103075.66;5027654;28;20515;-87
2022/03/22 07:45:03;;;;;;;34.80;23.27;;;;;;;8.94;66.94;103074.31;5032119;28;20045;-86
2022/03/22 07:47:30;;;;;;;29.50;23.00;;;;;;;9.19;65.58;103071.69;5031865;28;20419;-86
2022/03/22 07:55:47;;;;;;;32.08;21.65;;;;;;;9.87;63.24;103067.44;5031600;28;20086;-87
2022/03/22 07:58:12;;;;;;;30.58;23.35;;;;;;;10.16;62.79;103074.28;5030593;28;20120;-86
2022/03/22 08:00:41;;;;;;;30.92;22.02;;;;;;;10.45;61.82;103076.75;5028586;28;20069;-86
2022/03/22 08:03:10;;;;;;;30.63;22.35;;;;;;;10.67;61.70;103069.59;5026341;28;20025;-85
2022/03/22 08:05:36;;;;;;;34.40;22.75;;;;;;;10.89;59.61;103082.88;5017426;28;20034;-88
2022/03/22 08:08:05;;;;;;;33.70;21.95;;;;;;;11.17;59.43;103081.69;5015651;28;20064;-88
2022/03/22 08:10:31;;;;;;;30.38;20.85;;;;;;;11.42;58.38;103086.84;5033466;28;20050;-87
2022/03/22 08:13:00;;;;;;;29.27;21.77;;;;;;;11.72;58.51;103083.69;5031027;28;20037;-86
2022/03/22 08:15:25;;;;;;;30.85;21.50;;;;;;;11.96;58.56;103078.22;5032769;28;20045;-87
2022/03/22 08:17:51;;;;;;;32.70;22.63;;;;;;;12.17;56.10;103074.56;5030830;28;20039;-85
2022/03/22 08:20:17;;;;;;;31.20;21.20;;;;;;;12.39;54.66;103076.19;5032301;28;20037;-87
2022/03/22 08:22:58;;;;;;;31.33;20.90;;;;;;;12.66;54.44;103076.63;5032703;28;20534;-86
2022/03/22 08:25:28;;;;;;;31.60;21.48;;;;;;;12.88;54.00;103075.53;5032130;28;20045;-87
2022/03/22 08:27:54;;;;;;;32.22;21.67;;;;;;;13.10;53.03;103084.16;5015011;28;20050;-86
2022/03/22 08:30:21;;;;;;;29.30;21.25;;;;;;;13.31;51.01;103087.53;5033448;28;20515;-85
2022/03/22 08:32:49;;;;;;;29.42;20.75;;;;;;;13.60;51.42;103076.28;5030042;28;20033;-87
2022/03/22 08:35:14;;;;;;;31.75;20.88;;;;;;;13.85;50.12;103083.81;5017058;28;20029;-87
2022/03/22 08:37:42;;;;;;;30.52;20.48;;;;;;;14.08;49.08;103074.53;5036808;28;20051;-87
2022/03/22 08:40:09;;;;;;;32.70;20.65;;;;;;;14.27;48.05;103076.16;5034739;28;20033;-87
2022/03/22 08:42:37;;;;;;;30.88;20.17;;;;;;;14.41;47.49;103073.56;5035097;28;20437;-86
2022/03/22 08:45:06;;;;;;;29.88;20.50;;;;;;;14.68;47.59;103070.28;5035814;28;20048;-87
2022/03/22 08:47:34;;;;;;;28.15;20.58;;;;;;;14.90;46.12;103064.53;5017645;28;20492;-87
2022/03/22 08:49:59;;;;;;;28.42;20.75;;;;;;;15.07;45.26;103080.44;5035635;28;20041;-87
2022/03/22 08:52:24;;;;;;;29.55;19.92;;;;;;;15.28;44.68;103069.38;5025794;28;20415;-84
2022/03/22 08:54:51;;;;;;;27.67;19.58;;;;;;;15.58;45.09;103073.81;5035740;28;20083;-85
2022/03/22 08:57:17;;;;;;;29.05;19.80;;;;;;;15.81;43.76;103075.06;5035068;28;20034;-85
2022/03/22 08:59:43;;;;;;;26.73;19.13;;;;;;;16.02;44.02;103070.13;5035632;28;20087;-84
2022/03/22 09:02:09;;;;;;;33.60;20.95;;;;;;;16.14;42.85;103072.03;5036007;28;20033;-85
2022/03/22 09:07:18;;;;;;;29.23;20.80;;;;;;;16.55;41.92;103075.63;5034693;28;20127;-85
2022/03/22 09:09:44;;;;;;;29.15;19.92;;;;;;;16.71;41.47;103064.75;5017812;28;20070;-85
2022/03/22 09:12:11;;;;;;;29.02;19.85;;;;;;;16.84;40.12;103068.31;5019833;28;20460;-86
2022/03/22 09:14:37;;;;;;;27.88;19.75;;;;;;;17.04;40.73;103072.34;5039663;28;20029;-85
2022/03/22 09:17:05;;;;;;;28.67;20.40;;;;;;;17.18;39.85;103064.19;5049783;28;20035;-84
2022/03/22 09:19:30;;;;;;;29.98;20.55;;;;;;;17.43;39.04;103064.31;5038578;28;20476;-83
2022/03/22 09:21:56;;;;;;;31.38;20.83;;;;;;;17.51;38.38;103068.16;5037637;28;20073;-84
2022/03/22 09:24:21;;;;;;;31.63;20.35;;;;;;;17.74;38.23;103063.84;5042597;28;20109;-83
2022/03/22 09:26:46;;;;;;;28.95;20.10;;;;;;;17.97;37.84;103058.66;5051887;28;20041;-84
2022/03/22 09:29:11;;;;;;;25.40;19.50;;;;;;;18.10;37.51;103050.53;5057173;28;20037;-84
2022/03/22 09:31:39;;;;;;;30.73;21.23;;;;;;;18.29;37.64;103063.50;5040912;28;20288;-84
2022/03/22 09:34:04;;;;;;;28.23;20.42;;;;;;;18.45;37.35;103060.50;5046115;28;20044;-85
2022/03/22 09:36:32;;;;;;;29.17;19.50;;;;;;;18.75;37.88;103056.47;5036727;28;20034;-84
2022/03/22 09:38:58;;;;;;;27.63;19.95;;;;;;;18.83;36.09;103059.47;5036641;28;20284;-84
2022/03/22 09:41:26;;;;;;;29.73;20.40;;;;;;;18.97;37.42;103058.44;5035377;28;20032;-83
2022/03/22 09:43:51;;;;;;;27.48;21.17;;;;;;;19.14;34.94;103057.09;5036035;28;20365;-83
2022/03/22 09:46:18;;;;;;;33.10;19.83;;;;;;;19.32;35.33;103058.34;5034879;28;20026;-84
2022/03/22 09:48:47;;;;;;;30.85;20.60;;;;;;;19.42;34.61;103059.34;5033522;28;20379;-84
2022/03/22 09:53:58;;;;;;;31.92;20.45;;;;;;;19.58;34.50;103056.28;5014733;28;20527;-82
2022/03/22 09:56:26;;;;;;;33.35;21.50;;;;;;;19.61;34.28;103047.06;5015019;28;20033;-85
2022/03/22 09:58:52;;;;;;;31.73;20.27;;;;;;;19.77;34.09;103055.69;5024371;28;20057;-85
2022/03/22 10:01:18;;;;;;;30.80;20.17;;;;;;;19.87;33.48;103050.41;5033599;28;20045;-83
2022/03/22 10:03:54;;;;;;;32.42;21.50;;;;;;;20.14;34.68;103051.81;5034262;28;20044;-84
2022/03/22 10:06:21;;;;;;;29.83;20.70;;;;;;;20.17;32.25;103045.28;5034297;28;20480;-84
2022/03/22 10:08:50;;;;;;;28.98;20.50;;;;;;;20.40;32.42;103049.66;5036608;28;20051;-86
2022/03/22 10:11:16;;;;;;;28.15;20.58;;;;;;;20.48;32.59;103044.47;5032325;28;20088;-85
2022/03/22 10:13:55;;;;;;;32.50;21.15;;;;;;;20.57;34.00;103032.03;5026345;28;20029;-84
2022/03/22 10:16:21;;;;;;;32.45;22.08;;;;;;;20.74;31.99;103043.28;5033452;28;20029;-85
2022/03/22 10:18:47;;;;;;;32.13;22.20;;;;;;;20.88;32.42;103040.22;5033331;28;20029;-84
2022/03/22 10:21:12;;;;;;;27.15;21.45;;;;;;;21.04;31.58;103037.06;5033351;28;20022;-85
2022/03/22 10:23:54;;;;;;;30.00;22.00;;;;;;;21.20;32.64;103033.88;5033270;28;20026;-84
2022/03/22 10:26:20;;;;;;;31.48;20.55;;;;;;;21.30;30.85;103031.22;5033687;28;20080;-84
2022/03/22 10:28:54;;;;;;;33.47;22.25;;;;;;;21.43;31.78;103030.03;5034024;28;20040;-84
2022/03/22 10:31:31;;;;;;;34.55;23.63;;;;;;;21.62;30.98;103025.69;5034108;28;20480;-84
2022/03/22 10:33:57;;;;;;;32.33;21.55;;;;;;;21.80;30.42;103029.44;5031781;28;20041;-86
2022/03/22 10:36:22;;;;;;;31.02;21.90;;;;;;;21.93;31.09;103028.31;5035638;28;20037;-88
2022/03/22 10:38:59;;;;;;;30.08;21.25;;;;;;;22.11;31.15;103023.09;5023759;28;20041;-89
2022/03/22 10:41:30;;;;;;;31.80;21.35;;;;;;;22.31;29.67;103030.25;5016475;28;20029;-89
2022/03/22 10:44:10;;;;;;;30.75;20.77;;;;;;;22.13;28.54;103023.81;5018627;28;20030;-89
2022/03/22 10:46:38;;;;;;;32.70;19.60;;;;;;;22.31;27.97;103019.41;5003949;28;20045;-88
2022/03/22 10:49:06;;;;;;;33.25;20.38;;;;;;;22.33;27.69;103022.88;5027493;28;20494;-87
2022/03/22 10:51:39;;;;;;;32.03;22.37;;;;;;;22.56;28.76;103011.72;5036488;28;20037;-87
2022/03/22 10:54:04;;;;;;;33.33;20.70;;;;;;;22.60;27.63;103012.28;5037164;28;20276;-88
2022/03/22 10:56:31;;;;;;;31.42;20.92;;;;;;;22.69;26.98;103016.84;5018458;28;20041;-88
2022/03/22 10:58:59;;;;;;;28.85;20.52;;;;;;;22.68;26.73;103017.84;5034345;28;20029;-87
2022/03/22 11:01:25;;;;;;;30.92;21.15;;;;;;;22.80;27.18;103024.81;5036060;28;20047;-87
2022/03/22 11:03:56;;;;;;;28.45;20.25;;;;;;;22.85;27.36;103021.69;5035886;28;20404;-88
2022/03/22 11:06:25;;;;;;;27.83;21.88;;;;;;;23.00;26.87;103017.50;5036078;28;20037;-88
2022/03/22 11:08:50;;;;;;;28.50;20.67;;;;;;;22.98;26.41;103019.50;5036418;28;20087;-88
2022/03/22 11:11:16;;;;;;;26.02;18.30;;;;;;;23.30;27.42;103018.28;5036279;28;20029;-88
2022/03/22 11:13:41;;;;;;;26.05;18.20;;;;;;;23.50;27.03;103010.03;5036738;28;20037;-87
2022/03/22 11:16:07;;;;;;;27.80;18.70;;;;;;;23.30;26.40;103006.56;5039163;28;20101;-89
2022/03/22 11:18:33;;;;;;;26.42;18.38;;;;;;;23.53;26.54;103002.47;5040057;28;20100;-89
2022/03/22 11:21:01;;;;;;;24.88;16.65;;;;;;;23.45;25.84;103008.66;5041977;28;20053;-88
2022/03/22 11:23:32;;;;;;;25.92;17.17;;;;;;;23.58;26.05;103008.31;5022175;28;20037;-91
2022/03/22 11:26:11;;;;;;;28.58;18.45;;;;;;;23.78;27.21;103006.34;5017590;28;20057;-85
2022/03/22 11:28:38;;;;;;;29.45;18.02;;;;;;;23.77;27.21;103003.78;5032806;28;20040;-85
2022/03/22 11:31:06;;;;;;;24.13;16.83;;;;;;;23.74;25.55;102996.78;5034050;28;20025;-85
2022/03/22 11:36:18;;;;;;;26.05;18.42;;;;;;;23.61;26.03;102996.28;5034178;28;20047;-86
2022/03/22 11:38:50;;;;;;;29.47;17.97;;;;;;;23.68;26.21;102993.81;5032516;28;20057;-87
2022/03/22 11:44:27;;;;;;;28.60;19.27;;;;;;;23.51;25.85;102996.34;5032650;28;20088;-86
2022/03/22 11:47:03;;;;;;;27.58;17.98;;;;;;;23.73;26.71;102994.22;5017077;28;20048;-86
2022/03/22 11:49:30;;;;;;;24.27;16.58;;;;;;;23.62;25.45;102988.00;5023147;28;20037;-86
2022/03/22 11:51:58;;;;;;;28.27;18.27;;;;;;;23.59;25.69;102991.00;5015193;28;20107;-85
2022/03/22 11:54:28;;;;;;;23.10;18.30;;;;;;;23.50;26.22;102993.75;5027932;28;20026;-87
2022/03/22 11:56:59;;;;;;;23.65;18.27;;;;;;;23.28;26.11;102980.47;5023150;28;20034;-86